Terminal Aerodrome Forecast
Issued by NWS

Home | Current Version | Previous Version | Text Only | Print | Product List | Glossary On
Versions: 1 2 3 4 5 6 7 8 9 10 11 12 13 14
000
FTUS45 KTFX 021739
TAFBZN
TAF
KBZN 021739Z 0218/0318 VRB05KT P6SM VCSH SCT070 BKN120
     FM022100 28010G18KT P6SM -SHRA SCT030 OVC050
      TEMPO 0221/0224 VRB15G40KT 5SM TSRA BKN030CB
     FM030100 VRB06KT P6SM BKN120=

USA.gov is the U.S. government's official web portal to all federal, state and local government web resources and services.